sensor_id;sensor_type;location;lat;lon;timestamp;pressure;altitude;pressure_sealevel;temperature;humidity
65534;BME280;53640;55.838;37.184;2024-02-23T00:00:07;99334.59;;;-3.54;63.95
65534;BME280;53640;55.838;37.184;2024-02-23T00:02:37;99284.19;;;-3.94;64.41
65534;BME280;53640;55.838;37.184;2024-02-23T00:05:04;99270.41;;;-3.97;64.24
65534;BME280;53640;55.838;37.184;2024-02-23T00:07:31;99274.25;;;-4.01;64.41
65534;BME280;53640;55.838;37.184;2024-02-23T00:09:58;99330.09;;;-3.63;64.74
65534;BME280;53640;55.838;37.184;2024-02-23T00:12:24;99308.84;;;-3.72;64.18
65534;BME280;53640;55.838;37.184;2024-02-23T00:14:51;99354.56;;;-3.49;64.40
65534;BME280;53640;55.838;37.184;2024-02-23T00:17:18;99320.97;;;-3.70;64.31
65534;BME280;53640;55.838;37.184;2024-02-23T00:19:45;99315.19;;;-3.64;64.46
65534;BME280;53640;55.838;37.184;2024-02-23T00:22:13;99326.47;;;-3.62;64.26
65534;BME280;53640;55.838;37.184;2024-02-23T00:24:40;99305.94;;;-3.69;64.25
65534;BME280;53640;55.838;37.184;2024-02-23T00:27:07;99349.47;;;-3.41;64.37
65534;BME280;53640;55.838;37.184;2024-02-23T00:29:34;99351.06;;;-3.50;64.12
65534;BME280;53640;55.838;37.184;2024-02-23T00:32:01;99336.31;;;-3.52;64.15
65534;BME280;53640;55.838;37.184;2024-02-23T00:34:29;99312.47;;;-3.73;64.18
65534;BME280;53640;55.838;37.184;2024-02-23T00:36:58;99338.22;;;-3.55;64.20
65534;BME280;53640;55.838;37.184;2024-02-23T00:39:25;99287.78;;;-3.95;64.21
65534;BME280;53640;55.838;37.184;2024-02-23T00:41:53;99312.22;;;-3.70;64.46
65534;BME280;53640;55.838;37.184;2024-02-23T00:44:20;99334.03;;;-3.57;64.55
65534;BME280;53640;55.838;37.184;2024-02-23T00:46:46;99350.75;;;-3.57;64.55
65534;BME280;53640;55.838;37.184;2024-02-23T00:49:12;99265.34;;;-4.00;64.49
65534;BME280;53640;55.838;37.184;2024-02-23T00:51:40;99260.38;;;-4.15;64.21
65534;BME280;53640;55.838;37.184;2024-02-23T00:54:07;99299.03;;;-3.82;64.55
65534;BME280;53640;55.838;37.184;2024-02-23T00:56:34;99343.66;;;-3.56;64.39
65534;BME280;53640;55.838;37.184;2024-02-23T00:59:01;99359.13;;;-3.51;64.16
65534;BME280;53640;55.838;37.184;2024-02-23T01:01:29;99350.47;;;-3.54;64.19
65534;BME280;53640;55.838;37.184;2024-02-23T01:03:55;99331.16;;;-3.65;64.77
65534;BME280;53640;55.838;37.184;2024-02-23T01:06:21;99367.75;;;-3.38;64.28
65534;BME280;53640;55.838;37.184;2024-02-23T01:08:48;99337.13;;;-3.52;64.29
65534;BME280;53640;55.838;37.184;2024-02-23T01:11:14;99342.94;;;-3.58;64.36
65534;BME280;53640;55.838;37.184;2024-02-23T01:13:41;99339.63;;;-3.50;64.24
65534;BME280;53640;55.838;37.184;2024-02-23T01:16:08;99317.59;;;-3.61;64.19
65534;BME280;53640;55.838;37.184;2024-02-23T01:18:35;99358.00;;;-3.38;64.38
65534;BME280;53640;55.838;37.184;2024-02-23T01:21:03;99343.00;;;-3.48;64.45
65534;BME280;53640;55.838;37.184;2024-02-23T01:23:29;99275.69;;;-3.97;64.97
65534;BME280;53640;55.838;37.184;2024-02-23T01:25:56;99316.41;;;-3.68;64.64
65534;BME280;53640;55.838;37.184;2024-02-23T01:28:24;99288.31;;;-3.80;64.22
65534;BME280;53640;55.838;37.184;2024-02-23T01:30:51;99258.72;;;-3.95;64.47
65534;BME280;53640;55.838;37.184;2024-02-23T01:33:17;99240.72;;;-4.01;64.35
65534;BME280;53640;55.838;37.184;2024-02-23T01:35:44;99261.00;;;-3.90;64.50
65534;BME280;53640;55.838;37.184;2024-02-23T01:38:11;99280.66;;;-3.83;64.29
65534;BME280;53640;55.838;37.184;2024-02-23T01:40:45;99263.09;;;-3.84;64.31
65534;BME280;53640;55.838;37.184;2024-02-23T01:43:12;99290.66;;;-3.66;64.16
65534;BME280;53640;55.838;37.184;2024-02-23T01:45:39;99317.06;;;-3.55;64.38
65534;BME280;53640;55.838;37.184;2024-02-23T01:48:06;99312.94;;;-3.47;64.43
65534;BME280;53640;55.838;37.184;2024-02-23T01:50:34;99276.75;;;-3.68;63.99
65534;BME280;53640;55.838;37.184;2024-02-23T01:53:02;99307.25;;;-3.64;64.04
65534;BME280;53640;55.838;37.184;2024-02-23T01:55:29;99296.28;;;-3.59;64.31
65534;BME280;53640;55.838;37.184;2024-02-23T01:57:56;99343.13;;;-3.29;64.05
65534;BME280;53640;55.838;37.184;2024-02-23T02:00:24;99277.09;;;-3.72;64.04
65534;BME280;53640;55.838;37.184;2024-02-23T02:02:56;99306.22;;;-3.51;64.19
65534;BME280;53640;55.838;37.184;2024-02-23T02:05:24;99282.63;;;-3.64;63.97
65534;BME280;53640;55.838;37.184;2024-02-23T02:07:52;99246.78;;;-3.89;64.16
65534;BME280;53640;55.838;37.184;2024-02-23T02:10:21;99253.66;;;-3.87;64.68
65534;BME280;53640;55.838;37.184;2024-02-23T02:12:48;99289.44;;;-3.62;64.57
65534;BME280;53640;55.838;37.184;2024-02-23T02:15:16;99245.72;;;-3.87;64.14
65534;BME280;53640;55.838;37.184;2024-02-23T02:17:43;99311.50;;;-3.51;64.02
65534;BME280;53640;55.838;37.184;2024-02-23T02:20:12;99305.00;;;-3.47;63.98
65534;BME280;53640;55.838;37.184;2024-02-23T02:22:40;99279.09;;;-3.65;63.95
65534;BME280;53640;55.838;37.184;2024-02-23T02:25:08;99231.00;;;-4.00;64.28
65534;BME280;53640;55.838;37.184;2024-02-23T02:27:38;99350.50;;;-3.33;63.85
65534;BME280;53640;55.838;37.184;2024-02-23T02:30:05;99230.16;;;-4.01;64.37
65534;BME280;53640;55.838;37.184;2024-02-23T02:32:32;99335.13;;;-3.39;64.88
65534;BME280;53640;55.838;37.184;2024-02-23T02:34:58;99335.25;;;-3.40;64.58
65534;BME280;53640;55.838;37.184;2024-02-23T02:37:25;99316.66;;;-3.50;64.64
65534;BME280;53640;55.838;37.184;2024-02-23T02:39:51;99328.56;;;-3.44;64.51
65534;BME280;53640;55.838;37.184;2024-02-23T02:42:18;99318.88;;;-3.55;64.76
65534;BME280;53640;55.838;37.184;2024-02-23T02:44:44;99319.25;;;-3.39;64.63
65534;BME280;53640;55.838;37.184;2024-02-23T02:47:11;99355.88;;;-3.23;64.74
65534;BME280;53640;55.838;37.184;2024-02-23T02:49:40;99299.75;;;-3.59;64.64
65534;BME280;53640;55.838;37.184;2024-02-23T02:52:07;99333.78;;;-3.33;64.38
65534;BME280;53640;55.838;37.184;2024-02-23T02:54:34;99339.47;;;-3.38;64.81
65534;BME280;53640;55.838;37.184;2024-02-23T02:57:02;99312.50;;;-3.52;64.46
65534;BME280;53640;55.838;37.184;2024-02-23T02:59:28;99284.69;;;-3.68;64.47
65534;BME280;53640;55.838;37.184;2024-02-23T03:01:55;99337.19;;;-3.42;64.30
65534;BME280;53640;55.838;37.184;2024-02-23T03:04:23;99314.66;;;-3.58;64.79
65534;BME280;53640;55.838;37.184;2024-02-23T03:06:50;99330.22;;;-3.43;64.45
65534;BME280;53640;55.838;37.184;2024-02-23T03:09:16;99334.34;;;-3.50;64.76
65534;BME280;53640;55.838;37.184;2024-02-23T03:11:42;99321.50;;;-3.55;64.84
65534;BME280;53640;55.838;37.184;2024-02-23T03:14:09;99316.72;;;-3.61;65.14
65534;BME280;53640;55.838;37.184;2024-02-23T03:16:37;99367.84;;;-3.40;65.17
65534;BME280;53640;55.838;37.184;2024-02-23T03:19:04;99375.88;;;-3.30;64.70
65534;BME280;53640;55.838;37.184;2024-02-23T03:21:30;99376.97;;;-3.33;65.07
65534;BME280;53640;55.838;37.184;2024-02-23T03:23:58;99336.06;;;-3.49;64.79
65534;BME280;53640;55.838;37.184;2024-02-23T03:26:24;99384.84;;;-3.21;64.56
65534;BME280;53640;55.838;37.184;2024-02-23T03:28:51;99340.28;;;-3.58;64.70
65534;BME280;53640;55.838;37.184;2024-02-23T03:31:18;99349.78;;;-3.56;64.65
65534;BME280;53640;55.838;37.184;2024-02-23T03:33:47;99372.25;;;-3.29;64.68
65534;BME280;53640;55.838;37.184;2024-02-23T03:36:14;99354.50;;;-3.38;64.72
65534;BME280;53640;55.838;37.184;2024-02-23T03:38:41;99254.28;;;-3.94;64.80
65534;BME280;53640;55.838;37.184;2024-02-23T03:41:09;99393.38;;;-3.18;64.76
65534;BME280;53640;55.838;37.184;2024-02-23T03:43:36;99358.81;;;-3.37;65.22
65534;BME280;53640;55.838;37.184;2024-02-23T03:46:06;99366.81;;;-3.27;65.07
65534;BME280;53640;55.838;37.184;2024-02-23T03:48:32;99390.47;;;-3.15;64.78
65534;BME280;53640;55.838;37.184;2024-02-23T03:50:59;99361.53;;;-3.27;64.65
65534;BME280;53640;55.838;37.184;2024-02-23T03:53:25;99346.56;;;-3.38;64.81
65534;BME280;53640;55.838;37.184;2024-02-23T03:55:51;99345.25;;;-3.44;64.64
65534;BME280;53640;55.838;37.184;2024-02-23T03:58:18;99364.31;;;-3.29;64.48
65534;BME280;53640;55.838;37.184;2024-02-23T04:00:45;99366.97;;;-3.29;64.65
65534;BME280;53640;55.838;37.184;2024-02-23T04:03:11;99367.34;;;-3.34;64.42
65534;BME280;53640;55.838;37.184;2024-02-23T04:05:38;99351.13;;;-3.40;64.68
65534;BME280;53640;55.838;37.184;2024-02-23T04:08:04;99351.00;;;-3.39;64.65
65534;BME280;53640;55.838;37.184;2024-02-23T04:10:31;99400.81;;;-3.12;64.72
65534;BME280;53640;55.838;37.184;2024-02-23T04:12:59;99415.72;;;-3.11;64.53
65534;BME280;53640;55.838;37.184;2024-02-23T04:15:25;99385.81;;;-3.22;64.63
65534;BME280;53640;55.838;37.184;2024-02-23T04:17:52;99381.84;;;-3.28;64.93
65534;BME280;53640;55.838;37.184;2024-02-23T04:20:18;99348.63;;;-3.42;65.04
65534;BME280;53640;55.838;37.184;2024-02-23T04:22:45;99323.31;;;-3.56;64.74
65534;BME280;53640;55.838;37.184;2024-02-23T04:25:13;99387.34;;;-3.20;65.19
65534;BME280;53640;55.838;37.184;2024-02-23T04:27:40;99391.16;;;-3.13;64.69
65534;BME280;53640;55.838;37.184;2024-02-23T04:30:07;99341.19;;;-3.48;64.99
65534;BME280;53640;55.838;37.184;2024-02-23T04:32:33;99318.28;;;-3.59;64.99
65534;BME280;53640;55.838;37.184;2024-02-23T04:35:00;99350.41;;;-3.42;65.15
65534;BME280;53640;55.838;37.184;2024-02-23T04:37:26;99349.22;;;-3.38;64.94
65534;BME280;53640;55.838;37.184;2024-02-23T04:39:52;99347.56;;;-3.50;64.97
65534;BME280;53640;55.838;37.184;2024-02-23T04:42:19;99396.66;;;-3.25;65.11
65534;BME280;53640;55.838;37.184;2024-02-23T04:44:45;99354.34;;;-3.58;65.11
65534;BME280;53640;55.838;37.184;2024-02-23T04:47:12;99362.69;;;-3.41;64.98
65534;BME280;53640;55.838;37.184;2024-02-23T04:49:38;99403.22;;;-3.20;65.18
65534;BME280;53640;55.838;37.184;2024-02-23T04:52:05;99383.22;;;-3.34;64.95
65534;BME280;53640;55.838;37.184;2024-02-23T04:54:31;99362.22;;;-3.46;65.26
65534;BME280;53640;55.838;37.184;2024-02-23T04:56:58;99403.94;;;-3.18;65.24
65534;BME280;53640;55.838;37.184;2024-02-23T04:59:24;99398.06;;;-3.21;65.03
65534;BME280;53640;55.838;37.184;2024-02-23T05:01:51;99391.50;;;-3.27;65.31
65534;BME280;53640;55.838;37.184;2024-02-23T05:04:17;99403.75;;;-3.26;65.03
65534;BME280;53640;55.838;37.184;2024-02-23T05:06:43;99410.91;;;-3.17;64.78
65534;BME280;53640;55.838;37.184;2024-02-23T05:09:10;99367.78;;;-3.49;65.36
65534;BME280;53640;55.838;37.184;2024-02-23T05:11:37;99398.00;;;-3.31;65.20
65534;BME280;53640;55.838;37.184;2024-02-23T05:14:04;99394.91;;;-3.36;64.69
65534;BME280;53640;55.838;37.184;2024-02-23T05:16:30;99416.53;;;-3.31;65.66
65534;BME280;53640;55.838;37.184;2024-02-23T05:18:56;99419.41;;;-3.23;65.27
65534;BME280;53640;55.838;37.184;2024-02-23T05:21:23;99381.13;;;-3.51;65.18
65534;BME280;53640;55.838;37.184;2024-02-23T05:23:49;99435.91;;;-3.31;65.33
65534;BME280;53640;55.838;37.184;2024-02-23T05:26:16;99449.69;;;-3.16;65.21
65534;BME280;53640;55.838;37.184;2024-02-23T05:28:43;99425.97;;;-3.17;65.54
65534;BME280;53640;55.838;37.184;2024-02-23T05:31:16;99431.72;;;-3.12;65.31
65534;BME280;53640;55.838;37.184;2024-02-23T05:33:43;99356.78;;;-3.66;65.75
65534;BME280;53640;55.838;37.184;2024-02-23T05:36:09;99406.31;;;-3.36;65.48
65534;BME280;53640;55.838;37.184;2024-02-23T05:38:36;99394.44;;;-3.41;66.44
65534;BME280;53640;55.838;37.184;2024-02-23T05:41:02;99394.94;;;-3.47;65.37
65534;BME280;53640;55.838;37.184;2024-02-23T05:43:29;99367.97;;;-3.94;65.97
65534;BME280;53640;55.838;37.184;2024-02-23T05:45:55;99441.00;;;-3.18;65.53
65534;BME280;53640;55.838;37.184;2024-02-23T05:48:23;99443.03;;;-3.10;65.47
65534;BME280;53640;55.838;37.184;2024-02-23T05:50:49;99429.31;;;-3.36;65.98
65534;BME280;53640;55.838;37.184;2024-02-23T05:53:16;99451.59;;;-3.18;65.63
65534;BME280;53640;55.838;37.184;2024-02-23T05:55:47;99441.25;;;-3.21;65.68
65534;BME280;53640;55.838;37.184;2024-02-23T05:58:15;99420.19;;;-3.43;65.50
65534;BME280;53640;55.838;37.184;2024-02-23T06:00:45;99388.72;;;-3.58;65.88
65534;BME280;53640;55.838;37.184;2024-02-23T06:03:11;99438.38;;;-3.18;65.94
65534;BME280;53640;55.838;37.184;2024-02-23T06:05:39;99399.03;;;-3.43;65.69
65534;BME280;53640;55.838;37.184;2024-02-23T06:08:06;99357.63;;;-3.65;65.91
65534;BME280;53640;55.838;37.184;2024-02-23T06:10:32;99400.44;;;-3.39;65.69
65534;BME280;53640;55.838;37.184;2024-02-23T06:12:59;99406.81;;;-3.31;65.91
65534;BME280;53640;55.838;37.184;2024-02-23T06:15:26;99405.28;;;-3.44;65.64
65534;BME280;53640;55.838;37.184;2024-02-23T06:17:52;99463.56;;;-3.02;65.67
65534;BME280;53640;55.838;37.184;2024-02-23T06:20:19;99400.06;;;-3.35;65.71
65534;BME280;53640;55.838;37.184;2024-02-23T06:22:46;99396.00;;;-3.39;65.56
65534;BME280;53640;55.838;37.184;2024-02-23T06:25:14;99389.41;;;-3.44;65.51
65534;BME280;53640;55.838;37.184;2024-02-23T06:27:40;99398.72;;;-3.29;65.71
65534;BME280;53640;55.838;37.184;2024-02-23T06:30:15;99348.34;;;-3.60;65.81
65534;BME280;53640;55.838;37.184;2024-02-23T06:32:42;99430.81;;;-3.22;66.02
65534;BME280;53640;55.838;37.184;2024-02-23T06:35:09;99476.88;;;-2.93;65.99
65534;BME280;53640;55.838;37.184;2024-02-23T06:37:38;99465.91;;;-2.88;65.32
65534;BME280;53640;55.838;37.184;2024-02-23T06:40:04;99451.69;;;-3.08;65.96
65534;BME280;53640;55.838;37.184;2024-02-23T06:42:33;99446.06;;;-3.15;65.76
65534;BME280;53640;55.838;37.184;2024-02-23T06:45:00;99469.38;;;-2.88;65.62
65534;BME280;53640;55.838;37.184;2024-02-23T06:47:28;99416.47;;;-3.20;65.49
65534;BME280;53640;55.838;37.184;2024-02-23T06:49:55;99455.19;;;-3.08;65.84
65534;BME280;53640;55.838;37.184;2024-02-23T06:52:21;99465.13;;;-3.00;65.92
65534;BME280;53640;55.838;37.184;2024-02-23T06:54:49;99480.81;;;-2.87;65.67
65534;BME280;53640;55.838;37.184;2024-02-23T06:57:15;99447.72;;;-3.14;66.08
65534;BME280;53640;55.838;37.184;2024-02-23T06:59:42;99449.59;;;-3.05;66.25
65534;BME280;53640;55.838;37.184;2024-02-23T07:02:09;99478.75;;;-2.84;65.93
65534;BME280;53640;55.838;37.184;2024-02-23T07:04:35;99493.81;;;-2.84;65.85
65534;BME280;53640;55.838;37.184;2024-02-23T07:07:01;99447.03;;;-3.16;65.94
65534;BME280;53640;55.838;37.184;2024-02-23T07:09:34;99469.31;;;-2.97;65.97
65534;BME280;53640;55.838;37.184;2024-02-23T07:12:00;99495.94;;;-2.78;65.63
65534;BME280;53640;55.838;37.184;2024-02-23T07:14:27;99361.91;;;-3.53;65.84
65534;BME280;53640;55.838;37.184;2024-02-23T07:16:53;99458.66;;;-2.86;65.69
65534;BME280;53640;55.838;37.184;2024-02-23T07:19:20;99442.78;;;-3.07;66.34
65534;BME280;53640;55.838;37.184;2024-02-23T07:21:46;99490.44;;;-2.86;66.39
65534;BME280;53640;55.838;37.184;2024-02-23T07:24:13;99478.59;;;-2.82;65.55
65534;BME280;53640;55.838;37.184;2024-02-23T07:26:39;99459.56;;;-2.97;66.05
65534;BME280;53640;55.838;37.184;2024-02-23T07:29:07;99473.44;;;-2.84;66.15
65534;BME280;53640;55.838;37.184;2024-02-23T07:31:33;99475.06;;;-2.71;65.46
65534;BME280;53640;55.838;37.184;2024-02-23T07:34:00;99369.72;;;-3.51;66.46
65534;BME280;53640;55.838;37.184;2024-02-23T07:36:27;99422.34;;;-3.16;65.84
65534;BME280;53640;55.838;37.184;2024-02-23T07:38:53;99412.81;;;-3.08;65.50
65534;BME280;53640;55.838;37.184;2024-02-23T07:41:21;99454.75;;;-2.82;65.54
65534;BME280;53640;55.838;37.184;2024-02-23T07:43:47;99451.94;;;-2.90;65.18
65534;BME280;53640;55.838;37.184;2024-02-23T07:46:13;99434.94;;;-3.09;66.31
65534;BME280;53640;55.838;37.184;2024-02-23T07:48:40;99488.69;;;-2.76;65.75
65534;BME280;53640;55.838;37.184;2024-02-23T07:51:07;99359.13;;;-3.51;66.13
65534;BME280;53640;55.838;37.184;2024-02-23T07:53:34;99480.31;;;-2.81;66.14
65534;BME280;53640;55.838;37.184;2024-02-23T07:56:01;99438.75;;;-3.22;66.48
65534;BME280;53640;55.838;37.184;2024-02-23T07:58:28;99439.47;;;-2.99;65.97
65534;BME280;53640;55.838;37.184;2024-02-23T08:00:55;99476.09;;;-2.84;65.88
65534;BME280;53640;55.838;37.184;2024-02-23T08:03:21;99445.41;;;-2.86;65.52
65534;BME280;53640;55.838;37.184;2024-02-23T08:05:48;99455.81;;;-2.94;66.38
65534;BME280;53640;55.838;37.184;2024-02-23T08:08:14;99501.38;;;-2.59;65.89
65534;BME280;53640;55.838;37.184;2024-02-23T08:10:41;99479.91;;;-2.55;65.92
65534;BME280;53640;55.838;37.184;2024-02-23T08:13:07;99480.09;;;-2.68;65.74
65534;BME280;53640;55.838;37.184;2024-02-23T08:15:36;99479.72;;;-2.64;65.24
65534;BME280;53640;55.838;37.184;2024-02-23T08:18:03;99451.25;;;-2.92;65.58
65534;BME280;53640;55.838;37.184;2024-02-23T08:20:29;99474.88;;;-2.79;65.50
65534;BME280;53640;55.838;37.184;2024-02-23T08:22:57;99446.97;;;-2.84;65.53
65534;BME280;53640;55.838;37.184;2024-02-23T08:25:23;99501.22;;;-2.57;65.74
65534;BME280;53640;55.838;37.184;2024-02-23T08:27:50;99518.16;;;-2.48;65.79
65534;BME280;53640;55.838;37.184;2024-02-23T08:30:16;99507.53;;;-2.48;66.30
65534;BME280;53640;55.838;37.184;2024-02-23T08:32:42;99464.34;;;-2.70;65.59
65534;BME280;53640;55.838;37.184;2024-02-23T08:35:09;99484.63;;;-2.59;65.54
65534;BME280;53640;55.838;37.184;2024-02-23T08:37:35;99502.47;;;-2.40;64.87
65534;BME280;53640;55.838;37.184;2024-02-23T08:40:02;99504.25;;;-2.41;65.13
65534;BME280;53640;55.838;37.184;2024-02-23T08:42:29;99451.69;;;-2.66;65.39
65534;BME280;53640;55.838;37.184;2024-02-23T08:44:56;99460.47;;;-2.66;65.42
65534;BME280;53640;55.838;37.184;2024-02-23T08:47:22;99519.69;;;-2.25;65.25
65534;BME280;53640;55.838;37.184;2024-02-23T08:49:49;99520.41;;;-2.23;65.43
65534;BME280;53640;55.838;37.184;2024-02-23T08:52:15;99450.13;;;-2.69;65.50
65534;BME280;53640;55.838;37.184;2024-02-23T08:54:41;99497.03;;;-2.39;66.02
65534;BME280;53640;55.838;37.184;2024-02-23T08:57:08;99481.63;;;-2.45;65.55
65534;BME280;53640;55.838;37.184;2024-02-23T08:59:34;99516.91;;;-2.23;65.61
65534;BME280;53640;55.838;37.184;2024-02-23T09:02:00;99513.75;;;-2.17;65.27
65534;BME280;53640;55.838;37.184;2024-02-23T09:04:27;99502.19;;;-2.37;65.14
65534;BME280;53640;55.838;37.184;2024-02-23T09:06:54;99478.13;;;-2.45;65.10
65534;BME280;53640;55.838;37.184;2024-02-23T09:09:20;99408.22;;;-2.85;65.14
65534;BME280;53640;55.838;37.184;2024-02-23T09:11:47;99443.59;;;-2.65;65.38
65534;BME280;53640;55.838;37.184;2024-02-23T09:14:14;99423.47;;;-2.67;65.20
65534;BME280;53640;55.838;37.184;2024-02-23T09:16:40;99435.25;;;-2.60;65.38
65534;BME280;53640;55.838;37.184;2024-02-23T09:19:07;99481.75;;;-2.25;64.83
65534;BME280;53640;55.838;37.184;2024-02-23T09:21:33;99534.03;;;-2.06;65.26
65534;BME280;53640;55.838;37.184;2024-02-23T09:24:00;99541.13;;;-2.07;65.07
65534;BME280;53640;55.838;37.184;2024-02-23T09:26:26;99494.59;;;-2.21;64.67
65534;BME280;53640;55.838;37.184;2024-02-23T09:28:52;99479.19;;;-2.37;65.39
65534;BME280;53640;55.838;37.184;2024-02-23T09:31:19;99555.34;;;-1.87;65.42
65534;BME280;53640;55.838;37.184;2024-02-23T09:33:45;99503.16;;;-2.08;65.09
65534;BME280;53640;55.838;37.184;2024-02-23T09:36:12;99497.47;;;-2.03;64.65
65534;BME280;53640;55.838;37.184;2024-02-23T09:38:39;99541.25;;;-1.78;65.14
65534;BME280;53640;55.838;37.184;2024-02-23T09:41:14;99496.34;;;-2.00;65.06
65534;BME280;53640;55.838;37.184;2024-02-23T09:43:44;99497.06;;;-1.98;64.99
65534;BME280;53640;55.838;37.184;2024-02-23T09:46:10;99526.28;;;-1.89;64.62
65534;BME280;53640;55.838;37.184;2024-02-23T09:48:37;99507.91;;;-1.71;64.83
65534;BME280;53640;55.838;37.184;2024-02-23T09:51:05;99521.03;;;-1.69;65.08
65534;BME280;53640;55.838;37.184;2024-02-23T09:53:33;99480.91;;;-1.86;64.83
65534;BME280;53640;55.838;37.184;2024-02-23T09:56:03;99530.00;;;-1.61;64.79
65534;BME280;53640;55.838;37.184;2024-02-23T09:58:34;99508.06;;;-1.72;65.75
65534;BME280;53640;55.838;37.184;2024-02-23T10:01:02;99494.78;;;-1.72;64.37
65534;BME280;53640;55.838;37.184;2024-02-23T10:03:29;99486.41;;;-1.68;64.74
65534;BME280;53640;55.838;37.184;2024-02-23T10:05:59;99534.25;;;-1.39;64.50
65534;BME280;53640;55.838;37.184;2024-02-23T10:08:28;99542.34;;;-1.50;65.42
65534;BME280;53640;55.838;37.184;2024-02-23T10:10:54;99502.63;;;-1.51;64.13
65534;BME280;53640;55.838;37.184;2024-02-23T10:13:23;99524.91;;;-1.43;65.22
65534;BME280;53640;55.838;37.184;2024-02-23T10:15:53;99538.88;;;-1.31;65.30
65534;BME280;53640;55.838;37.184;2024-02-23T10:18:19;99481.38;;;-1.71;64.62
65534;BME280;53640;55.838;37.184;2024-02-23T10:20:46;99510.22;;;-1.37;64.74
65534;BME280;53640;55.838;37.184;2024-02-23T10:23:13;99521.66;;;-1.46;65.46
65534;BME280;53640;55.838;37.184;2024-02-23T10:25:39;99525.75;;;-1.23;64.61
65534;BME280;53640;55.838;37.184;2024-02-23T10:28:06;99532.59;;;-1.11;64.37
65534;BME280;53640;55.838;37.184;2024-02-23T10:30:33;99488.97;;;-1.37;64.18
65534;BME280;53640;55.838;37.184;2024-02-23T10:33:00;99513.31;;;-1.22;64.14
65534;BME280;53640;55.838;37.184;2024-02-23T10:35:26;99485.78;;;-1.31;64.10
65534;BME280;53640;55.838;37.184;2024-02-23T10:37:56;99556.66;;;-1.02;64.14
65534;BME280;53640;55.838;37.184;2024-02-23T10:40:24;99552.59;;;-1.06;63.76
65534;BME280;53640;55.838;37.184;2024-02-23T10:42:56;99543.09;;;-1.09;63.44
65534;BME280;53640;55.838;37.184;2024-02-23T10:45:23;99564.06;;;-1.06;63.79
65534;BME280;53640;55.838;37.184;2024-02-23T10:47:50;99524.09;;;-1.24;63.48
65534;BME280;53640;55.838;37.184;2024-02-23T10:50:17;99536.53;;;-1.15;63.88
65534;BME280;53640;55.838;37.184;2024-02-23T10:52:46;99553.16;;;-1.03;63.60
65534;BME280;53640;55.838;37.184;2024-02-23T10:55:15;99480.41;;;-1.50;63.49
65534;BME280;53640;55.838;37.184;2024-02-23T10:57:43;99501.53;;;-1.39;63.87
65534;BME280;53640;55.838;37.184;2024-02-23T11:00:10;99505.47;;;-1.33;63.32
65534;BME280;53640;55.838;37.184;2024-02-23T11:02:44;99568.56;;;-0.97;63.35
65534;BME280;53640;55.838;37.184;2024-02-23T11:05:12;99549.81;;;-1.15;64.01
65534;BME280;53640;55.838;37.184;2024-02-23T11:07:40;99540.13;;;-1.35;64.05
65534;BME280;53640;55.838;37.184;2024-02-23T11:10:07;99569.94;;;-1.12;63.84
65534;BME280;53640;55.838;37.184;2024-02-23T11:12:35;99490.19;;;-1.51;64.19
65534;BME280;53640;55.838;37.184;2024-02-23T11:15:03;99552.19;;;-1.12;64.13
65534;BME280;53640;55.838;37.184;2024-02-23T11:17:34;99535.41;;;-1.22;64.02
65534;BME280;53640;55.838;37.184;2024-02-23T11:20:05;99551.75;;;-1.17;63.83
65534;BME280;53640;55.838;37.184;2024-02-23T11:22:34;99559.75;;;-1.07;64.32
65534;BME280;53640;55.838;37.184;2024-02-23T11:25:05;99558.06;;;-0.98;63.86
65534;BME280;53640;55.838;37.184;2024-02-23T11:27:33;99538.47;;;-1.17;64.18
65534;BME280;53640;55.838;37.184;2024-02-23T11:30:06;99523.25;;;-1.15;64.13
65534;BME280;53640;55.838;37.184;2024-02-23T11:35:07;99515.81;;;-1.21;63.92
65534;BME280;53640;55.838;37.184;2024-02-23T11:37:55;99457.25;;;-1.48;63.83
65534;BME280;53640;55.838;37.184;2024-02-23T11:40:33;99508.56;;;-1.19;63.89
65534;BME280;53640;55.838;37.184;2024-02-23T11:43:00;99528.56;;;-1.05;64.07
65534;BME280;53640;55.838;37.184;2024-02-23T11:45:28;99565.34;;;-0.81;64.36
65534;BME280;53640;55.838;37.184;2024-02-23T11:47:55;99546.47;;;-0.97;63.81
65534;BME280;53640;55.838;37.184;2024-02-23T11:50:22;99577.22;;;-0.95;64.44
65534;BME280;53640;55.838;37.184;2024-02-23T11:52:49;99499.31;;;-1.34;63.96
65534;BME280;53640;55.838;37.184;2024-02-23T11:55:21;99579.31;;;-0.79;64.10
65534;BME280;53640;55.838;37.184;2024-02-23T11:57:49;99606.47;;;-0.75;64.33
65534;BME280;53640;55.838;37.184;2024-02-23T12:00:16;99594.56;;;-0.91;64.90
65534;BME280;53640;55.838;37.184;2024-02-23T12:02:43;99549.38;;;-1.10;65.04
65534;BME280;53640;55.838;37.184;2024-02-23T12:05:12;99563.81;;;-0.93;65.03
65534;BME280;53640;55.838;37.184;2024-02-23T12:07:41;99579.88;;;-0.95;64.75
65534;BME280;53640;55.838;37.184;2024-02-23T12:10:08;99599.75;;;-0.79;65.09
65534;BME280;53640;55.838;37.184;2024-02-23T12:12:36;99559.88;;;-1.08;65.92
65534;BME280;53640;55.838;37.184;2024-02-23T12:15:04;99556.81;;;-0.94;65.32
65534;BME280;53640;55.838;37.184;2024-02-23T12:17:31;99541.28;;;-1.08;65.25
65534;BME280;53640;55.838;37.184;2024-02-23T12:20:02;99598.22;;;-0.92;65.71
65534;BME280;53640;55.838;37.184;2024-02-23T12:22:29;99587.75;;;-0.74;65.28
65534;BME280;53640;55.838;37.184;2024-02-23T12:24:59;99575.97;;;-0.91;66.17
65534;BME280;53640;55.838;37.184;2024-02-23T12:27:26;99577.38;;;-0.77;65.99
65534;BME280;53640;55.838;37.184;2024-02-23T12:29:53;99541.84;;;-0.95;65.71
65534;BME280;53640;55.838;37.184;2024-02-23T12:32:21;99557.53;;;-0.82;65.40
65534;BME280;53640;55.838;37.184;2024-02-23T12:34:50;99582.97;;;-0.70;65.62
65534;BME280;53640;55.838;37.184;2024-02-23T12:37:18;99478.75;;;-1.32;65.29
65534;BME280;53640;55.838;37.184;2024-02-23T12:39:45;99439.38;;;-1.46;65.07
65534;BME280;53640;55.838;37.184;2024-02-23T12:42:12;99478.63;;;-1.21;64.98
65534;BME280;53640;55.838;37.184;2024-02-23T12:44:38;99463.13;;;-1.45;65.82
65534;BME280;53640;55.838;37.184;2024-02-23T12:47:05;99522.81;;;-1.10;65.79
65534;BME280;53640;55.838;37.184;2024-02-23T12:49:31;99516.66;;;-0.91;65.14
65534;BME280;53640;55.838;37.184;2024-02-23T12:51:58;99469.44;;;-1.26;65.05